Time;durP1;ratioP1;P1;durP2;ratioP2;P2;SDS_P1;SDS_P2;PMS_P1;PMS_P2;Temp;Humidity;BMP_temperature;BMP_pressure;BME280_temperature;BME280_humidity;BME280_pressure;Samples;Min_cycle;Max_cycle;Signal;HPM_P1;HPM_P2
2021/08/13 00:00:57;;;;;;;10.55;7.85;;;22.10;72.00;;;;;;4985627;28;20393;-64
2021/08/13 00:03:22;;;;;;;10.90;8.65;;;22.20;72.20;;;;;;4989005;28;20069;-64
2021/08/13 00:05:48;;;;;;;9.40;8.18;;;22.10;72.10;;;;;;4989897;28;20121;-64
2021/08/13 00:08:14;;;;;;;12.07;8.02;;;22.20;72.30;;;;;;4989883;28;20117;-64
2021/08/13 00:10:40;;;;;;;10.05;7.30;;;22.20;72.20;;;;;;4980888;28;20142;-64
2021/08/13 00:13:06;;;;;;;9.45;7.72;;;22.20;72.10;;;;;;4990025;28;20081;-64
2021/08/13 00:15:31;;;;;;;10.25;8.27;;;22.20;72.10;;;;;;4986948;28;20048;-64
2021/08/13 00:17:57;;;;;;;11.75;7.80;;;22.20;72.10;;;;;;4986477;28;20042;-64
2021/08/13 00:20:23;;;;;;;12.93;8.38;;;22.20;72.10;;;;;;4985934;28;20030;-63
2021/08/13 00:22:50;;;;;;;8.68;7.85;;;22.20;72.00;;;;;;4984527;28;20030;-64
2021/08/13 00:25:16;;;;;;;10.38;7.80;;;22.20;71.80;;;;;;4974057;28;20034;-65
2021/08/13 00:27:41;;;;;;;11.27;8.57;;;22.10;72.10;;;;;;4982426;28;20045;-64
2021/08/13 00:30:08;;;;;;;9.52;8.25;;;22.10;72.10;;;;;;4981402;28;20042;-63
2021/08/13 00:32:33;;;;;;;8.63;7.72;;;22.10;72.10;;;;;;4970031;28;20041;-64
2021/08/13 00:34:59;;;;;;;11.20;8.75;;;22.10;72.20;;;;;;4977676;28;20034;-63
2021/08/13 00:37:25;;;;;;;13.07;7.82;;;22.00;72.50;;;;;;4973840;28;20058;-64
2021/08/13 00:39:50;;;;;;;13.82;8.43;;;22.00;72.70;;;;;;4973065;28;20039;-64
2021/08/13 00:42:16;;;;;;;12.75;8.05;;;22.00;72.80;;;;;;4973106;28;20043;-64
2021/08/13 00:44:42;;;;;;;11.65;8.00;;;22.00;72.80;;;;;;4977856;28;20097;-64
2021/08/13 00:47:08;;;;;;;11.20;7.78;;;22.00;73.00;;;;;;4973176;28;20047;-64
2021/08/13 00:49:33;;;;;;;11.57;8.10;;;22.00;73.00;;;;;;4978411;28;20042;-63
2021/08/13 00:51:59;;;;;;;8.43;7.55;;;22.00;73.00;;;;;;4980866;28;20030;-64
2021/08/13 00:54:25;;;;;;;9.30;8.07;;;22.00;73.20;;;;;;4971803;28;20072;-64
2021/08/13 00:56:50;;;;;;;9.57;7.68;;;22.00;73.20;;;;;;4972650;28;20121;-64
2021/08/13 00:59:17;;;;;;;11.82;7.68;;;22.00;73.20;;;;;;4981300;28;20051;-64
2021/08/13 01:01:44;;;;;;;9.48;7.97;;;22.00;73.00;;;;;;4968879;28;20105;-64
2021/08/13 01:04:10;;;;;;;14.60;8.60;;;22.00;73.00;;;;;;4972646;28;20039;-64
2021/08/13 01:06:36;;;;;;;11.10;8.13;;;22.00;73.20;;;;;;4972656;28;21744;-64
2021/08/13 01:09:02;;;;;;;9.05;8.00;;;22.00;73.20;;;;;;4972509;28;20038;-64
2021/08/13 01:11:57;;;;;;;12.88;7.88;;;21.90;73.20;;;;;;4972644;28;20030;-64
2021/08/13 01:14:52;;;;;;;10.80;7.97;;;21.80;74.40;;;;;;4984023;28;20037;-63
2021/08/13 01:17:21;;;;;;;9.02;7.57;;;21.80;74.30;;;;;;4984366;28;20042;-64
2021/08/13 01:20:08;;;;;;;8.02;7.22;;;21.70;73.30;;;;;;4982630;28;20041;-64
2021/08/13 01:22:37;;;;;;;12.35;8.05;;;21.70;74.00;;;;;;4973704;28;20533;-64
2021/08/13 01:25:05;;;;;;;9.10;8.02;;;21.70;73.70;;;;;;4970880;28;20038;-63
2021/08/13 01:27:34;;;;;;;8.95;8.05;;;21.70;74.00;;;;;;4973826;28;20081;-64
2021/08/13 01:30:12;;;;;;;12.10;8.13;;;21.70;73.90;;;;;;4968540;28;20121;-64
2021/08/13 01:32:43;;;;;;;10.52;7.75;;;21.70;74.60;;;;;;4982071;28;20030;-63
2021/08/13 01:35:16;;;;;;;8.75;7.65;;;21.70;74.30;;;;;;4988800;28;20038;-64
2021/08/13 01:37:53;;;;;;;9.93;8.43;;;21.70;74.00;;;;;;4974565;28;20133;-64
2021/08/13 01:40:20;;;;;;;9.05;7.40;;;21.70;74.60;;;;;;4982043;28;20041;-64
2021/08/13 01:42:46;;;;;;;11.98;7.60;;;21.70;73.70;;;;;;4983607;28;20038;-64
2021/08/13 01:45:18;;;;;;;7.82;7.00;;;21.70;73.90;;;;;;4983169;28;20035;-64
2021/08/13 01:47:44;;;;;;;8.27;7.13;;;21.70;74.00;;;;;;4977626;28;20038;-64
2021/08/13 01:50:10;;;;;;;10.00;7.00;;;21.70;74.20;;;;;;4994813;28;20049;-63
2021/08/13 01:52:37;;;;;;;8.32;7.10;;;21.70;74.20;;;;;;4981066;28;20728;-64
2021/08/13 01:55:04;;;;;;;8.13;7.13;;;21.70;74.30;;;;;;4972141;28;20118;-64
2021/08/13 01:57:30;;;;;;;8.57;7.05;;;21.70;74.10;;;;;;4973463;28;20279;-64
2021/08/13 01:59:57;;;;;;;8.50;7.05;;;21.70;74.20;;;;;;4982264;28;20038;-63
2021/08/13 02:02:23;;;;;;;10.07;7.30;;;21.70;74.40;;;;;;4980410;28;20070;-63
2021/08/13 02:04:52;;;;;;;8.98;7.28;;;21.70;74.40;;;;;;4982960;28;20069;-64
2021/08/13 02:07:18;;;;;;;9.63;7.32;;;21.70;74.40;;;;;;4972961;28;20453;-64
2021/08/13 02:09:44;;;;;;;8.30;7.03;;;21.70;74.50;;;;;;4981766;28;20042;-64
2021/08/13 02:12:10;;;;;;;8.77;7.03;;;21.70;74.60;;;;;;4973521;28;20543;-64
2021/08/13 02:14:38;;;;;;;8.20;6.72;;;21.70;74.50;;;;;;4982185;28;20043;-64
2021/08/13 02:17:10;;;;;;;7.85;6.47;;;21.80;74.60;;;;;;4973004;28;20039;-64
2021/08/13 02:19:42;;;;;;;9.88;6.57;;;21.80;74.70;;;;;;4974209;28;20042;-64
2021/08/13 02:22:08;;;;;;;8.57;6.40;;;21.80;74.60;;;;;;4974570;28;20042;-64
2021/08/13 02:24:33;;;;;;;7.63;6.28;;;21.90;74.20;;;;;;4972125;28;20043;-63
2021/08/13 02:27:01;;;;;;;11.13;6.57;;;21.90;74.10;;;;;;4973611;28;20034;-63
2021/08/13 02:29:27;;;;;;;8.50;6.70;;;22.00;74.20;;;;;;4978683;28;20045;-64
2021/08/13 02:31:54;;;;;;;7.43;6.50;;;22.00;74.20;;;;;;4983520;28;20046;-64
2021/08/13 02:34:19;;;;;;;7.43;6.60;;;22.00;74.10;;;;;;4986580;28;20030;-64
2021/08/13 02:36:53;;;;;;;8.13;6.57;;;22.00;73.90;;;;;;4975032;28;20571;-64
2021/08/13 02:39:28;;;;;;;8.70;6.72;;;22.10;74.00;;;;;;4990967;28;20121;-64
2021/08/13 02:41:57;;;;;;;8.43;6.95;;;22.10;74.20;;;;;;4980221;28;20049;-64
2021/08/13 02:44:25;;;;;;;7.65;6.47;;;22.10;73.80;;;;;;4985468;28;20031;-64
2021/08/13 02:46:57;;;;;;;8.65;6.38;;;22.10;73.70;;;;;;4976328;28;20049;-64
2021/08/13 02:49:25;;;;;;;9.55;6.45;;;22.10;73.90;;;;;;4978639;28;20058;-64
2021/08/13 02:51:57;;;;;;;7.35;6.65;;;22.20;74.00;;;;;;4989674;28;20042;-64
2021/08/13 02:54:27;;;;;;;8.70;6.55;;;22.20;73.80;;;;;;4979214;28;20058;-63
2021/08/13 02:56:56;;;;;;;7.57;6.57;;;22.20;73.70;;;;;;4983168;28;20060;-65
2021/08/13 02:59:24;;;;;;;7.57;6.53;;;22.30;73.80;;;;;;4988372;28;20030;-64
2021/08/13 03:01:52;;;;;;;7.40;6.63;;;22.30;73.60;;;;;;4976329;28;20062;-64
2021/08/13 03:04:19;;;;;;;8.77;6.05;;;22.30;73.50;;;;;;4992317;28;20039;-64
2021/08/13 03:06:45;;;;;;;8.10;6.07;;;22.30;73.40;;;;;;4975110;28;20050;-64
2021/08/13 03:09:11;;;;;;;8.73;6.60;;;22.30;73.30;;;;;;4978560;28;20046;-64
2021/08/13 03:11:39;;;;;;;7.70;6.22;;;22.40;73.20;;;;;;4981210;28;20068;-63
2021/08/13 03:14:07;;;;;;;7.43;6.28;;;22.30;73.20;;;;;;4983085;28;20387;-64
2021/08/13 03:16:33;;;;;;;7.55;6.13;;;22.40;73.30;;;;;;4986826;28;20409;-64
2021/08/13 03:19:00;;;;;;;9.07;6.68;;;22.40;73.40;;;;;;4985453;28;20498;-64
2021/08/13 03:21:27;;;;;;;11.68;7.28;;;22.40;73.40;;;;;;4989317;28;20177;-64
2021/08/13 03:23:53;;;;;;;8.20;6.60;;;22.40;73.30;;;;;;4980722;28;20043;-64
2021/08/13 03:26:20;;;;;;;7.20;6.45;;;22.40;73.50;;;;;;4983646;28;20031;-64
2021/08/13 03:28:47;;;;;;;7.03;6.32;;;22.40;73.60;;;;;;4979238;28;20193;-64
2021/08/13 03:31:38;;;;;;;11.40;6.60;;;22.40;73.60;;;;;;4974775;28;20170;-64
2021/08/13 03:34:06;;;;;;;7.53;6.55;;;22.40;74.00;;;;;;4980124;28;20061;-64
2021/08/13 03:36:33;;;;;;;8.23;6.97;;;22.40;73.50;;;;;;4979799;28;20050;-64
2021/08/13 03:38:58;;;;;;;9.05;7.20;;;22.40;73.50;;;;;;4982032;28;20786;-64
2021/08/13 03:41:24;;;;;;;8.00;6.75;;;22.40;73.60;;;;;;4997735;28;20038;-64
2021/08/13 03:43:50;;;;;;;7.82;6.47;;;22.40;73.90;;;;;;4971249;28;20049;-64
2021/08/13 03:46:15;;;;;;;9.55;7.40;;;22.40;73.90;;;;;;4978459;28;20039;-64
2021/08/13 03:48:41;;;;;;;7.85;7.10;;;22.40;74.00;;;;;;4974765;28;20046;-64
2021/08/13 03:51:07;;;;;;;7.82;6.43;;;22.40;74.00;;;;;;4974938;28;20383;-64
2021/08/13 03:53:32;;;;;;;6.78;6.00;;;22.40;74.00;;;;;;4977852;28;20038;-63
2021/08/13 03:55:58;;;;;;;10.20;6.88;;;22.40;74.00;;;;;;4973283;28;20161;-64
2021/08/13 03:58:24;;;;;;;7.47;6.78;;;22.40;74.00;;;;;;4971946;28;20165;-63
2021/08/13 04:00:49;;;;;;;8.30;6.38;;;22.40;74.00;;;;;;4978141;28;20026;-64
2021/08/13 04:03:15;;;;;;;8.30;6.45;;;22.40;74.00;;;;;;4976291;28;20097;-63
2021/08/13 04:05:40;;;;;;;7.88;6.32;;;22.40;74.00;;;;;;4988812;28;20070;-64
2021/08/13 04:08:06;;;;;;;10.07;6.68;;;22.40;74.10;;;;;;4970349;28;20035;-64
2021/08/13 04:10:32;;;;;;;8.93;7.25;;;22.40;74.20;;;;;;4973546;28;20031;-64
2021/08/13 04:12:57;;;;;;;12.95;6.65;;;22.40;74.30;;;;;;4980434;28;20544;-64
2021/08/13 04:15:23;;;;;;;8.68;6.93;;;22.40;74.50;;;;;;4984740;28;20035;-64
2021/08/13 04:17:49;;;;;;;8.18;6.68;;;22.40;74.60;;;;;;4988809;28;20115;-64
2021/08/13 04:20:15;;;;;;;8.13;6.65;;;22.40;74.70;;;;;;4986589;28;20138;-64
2021/08/13 04:22:41;;;;;;;12.10;7.35;;;22.40;74.90;;;;;;4985519;28;20088;-64
2021/08/13 04:25:07;;;;;;;8.55;6.82;;;22.40;74.90;;;;;;4976823;28;20034;-64
2021/08/13 04:27:33;;;;;;;7.55;6.63;;;22.40;75.10;;;;;;4977819;28;20036;-64
2021/08/13 04:29:59;;;;;;;9.07;6.60;;;22.40;75.10;;;;;;4975747;28;20042;-63
2021/08/13 04:32:24;;;;;;;10.20;7.22;;;22.40;75.10;;;;;;4981003;28;20034;-64
2021/08/13 04:34:50;;;;;;;10.15;6.85;;;22.40;75.10;;;;;;4978663;28;20066;-64
2021/08/13 04:37:16;;;;;;;12.18;6.80;;;22.40;75.30;;;;;;4977359;28;20038;-64
2021/08/13 04:39:41;;;;;;;9.40;6.38;;;22.40;75.20;;;;;;4974386;28;20034;-64
2021/08/13 04:42:07;;;;;;;7.85;6.00;;;22.40;75.30;;;;;;4973274;28;20034;-63
2021/08/13 04:44:33;;;;;;;8.90;6.10;;;22.40;75.30;;;;;;4973628;28;20057;-63
2021/08/13 04:46:59;;;;;;;10.43;6.03;;;22.40;75.40;;;;;;4981397;28;20066;-64
2021/08/13 04:49:25;;;;;;;10.88;6.25;;;22.40;75.30;;;;;;4985056;28;20161;-64
2021/08/13 04:51:51;;;;;;;7.18;5.80;;;22.40;75.30;;;;;;4982473;28;20062;-64
2021/08/13 04:54:16;;;;;;;10.88;6.18;;;22.40;75.40;;;;;;4987346;28;20672;-64
2021/08/13 04:56:42;;;;;;;8.40;6.25;;;22.50;75.60;;;;;;4979245;28;20050;-64
2021/08/13 04:59:08;;;;;;;13.48;6.45;;;22.50;75.50;;;;;;4981731;28;20462;-64
2021/08/13 05:01:34;;;;;;;7.18;6.03;;;22.40;75.30;;;;;;4978282;28;20517;-64
2021/08/13 05:03:59;;;;;;;10.57;6.57;;;22.40;75.30;;;;;;4984494;28;20038;-63
2021/08/13 05:06:25;;;;;;;11.18;6.57;;;22.40;75.40;;;;;;4976108;28;20093;-64
2021/08/13 05:08:51;;;;;;;8.05;6.03;;;22.40;75.40;;;;;;4983364;28;20038;-64
2021/08/13 05:11:16;;;;;;;6.93;5.53;;;22.40;75.30;;;;;;4996556;28;20039;-65
2021/08/13 05:13:42;;;;;;;10.15;6.53;;;22.50;75.40;;;;;;4981542;28;20564;-64
2021/08/13 05:16:08;;;;;;;7.05;6.45;;;22.50;75.60;;;;;;4977949;28;20561;-64
2021/08/13 05:18:34;;;;;;;9.20;6.63;;;22.50;75.50;;;;;;4982380;28;20105;-64
2021/08/13 05:21:00;;;;;;;11.48;5.78;;;22.50;75.50;;;;;;4976694;28;20549;-64
2021/08/13 05:23:25;;;;;;;9.82;6.28;;;22.50;75.40;;;;;;4978338;28;20030;-63
2021/08/13 05:25:51;;;;;;;9.77;6.10;;;22.60;75.40;;;;;;4976268;28;20605;-64
2021/08/13 05:28:17;;;;;;;9.60;5.97;;;22.60;75.40;;;;;;4980904;28;20135;-64
2021/08/13 05:30:42;;;;;;;7.13;5.38;;;22.60;75.30;;;;;;4999841;28;20049;-63
2021/08/13 05:33:08;;;;;;;10.07;5.40;;;22.60;75.30;;;;;;4977557;28;20122;-64
2021/08/13 05:35:37;;;;;;;10.93;5.35;;;22.70;75.10;;;;;;4970684;28;20449;-64
2021/08/13 05:38:04;;;;;;;8.57;4.95;;;22.70;74.90;;;;;;4969225;28;20453;-63
2021/08/13 05:40:29;;;;;;;14.57;4.88;;;22.70;74.90;;;;;;4969846;28;20030;-63
2021/08/13 05:42:56;;;;;;;7.38;5.22;;;22.80;75.00;;;;;;4977532;28;20034;-64
2021/08/13 05:45:22;;;;;;;8.00;4.75;;;22.80;75.00;;;;;;4980892;28;20035;-63
2021/08/13 05:47:48;;;;;;;10.20;4.95;;;22.80;74.80;;;;;;4971206;28;20034;-63
2021/08/13 05:50:16;;;;;;;7.55;4.97;;;22.90;75.60;;;;;;4982341;28;20035;-64
2021/08/13 05:52:42;;;;;;;5.68;4.72;;;22.90;74.60;;;;;;4981014;28;20130;-64
2021/08/13 05:55:09;;;;;;;7.65;4.68;;;22.90;74.70;;;;;;4975190;28;20179;-64
2021/08/13 05:57:34;;;;;;;8.10;4.68;;;23.00;74.60;;;;;;4976462;28;20048;-64
2021/08/13 06:00:00;;;;;;;11.32;4.78;;;23.00;74.30;;;;;;4972680;28;20398;-64
2021/08/13 06:02:25;;;;;;;7.97;4.85;;;23.10;74.30;;;;;;4970022;28;20043;-63
2021/08/13 06:04:51;;;;;;;7.03;4.32;;;23.20;74.00;;;;;;4971398;28;20030;-64
2021/08/13 06:07:17;;;;;;;7.97;4.75;;;23.20;73.80;;;;;;4971257;28;20038;-64
2021/08/13 06:09:42;;;;;;;8.50;4.80;;;23.30;73.30;;;;;;4978963;28;20053;-64
2021/08/13 06:12:08;;;;;;;8.85;4.32;;;23.30;73.20;;;;;;4977156;28;20057;-64
2021/08/13 06:14:34;;;;;;;9.90;4.47;;;23.40;73.50;;;;;;4975966;28;20849;-64
2021/08/13 06:17:02;;;;;;;11.80;4.55;;;23.40;73.80;;;;;;4994087;28;20113;-64
2021/08/13 06:19:28;;;;;;;7.97;3.72;;;23.40;73.20;;;;;;4970895;28;20026;-64
2021/08/13 06:21:54;;;;;;;6.53;3.88;;;23.50;72.80;;;;;;4975742;28;20046;-64
2021/08/13 06:24:19;;;;;;;7.55;4.10;;;23.60;72.60;;;;;;4977500;28;20758;-64
2021/08/13 06:26:45;;;;;;;6.45;4.00;;;23.60;72.40;;;;;;4977270;28;20031;-64
2021/08/13 06:29:11;;;;;;;8.70;4.10;;;23.70;72.20;;;;;;4979365;28;20418;-64
2021/08/13 06:31:36;;;;;;;6.80;4.22;;;23.70;72.30;;;;;;4985794;28;20038;-64
2021/08/13 06:34:02;;;;;;;9.13;4.03;;;23.80;72.00;;;;;;4972320;28;20027;-64
2021/08/13 06:36:28;;;;;;;8.98;4.00;;;23.80;71.80;;;;;;4967342;28;20084;-64
2021/08/13 06:38:53;;;;;;;5.75;3.55;;;23.90;71.90;;;;;;4974842;28;20550;-64
2021/08/13 06:41:19;;;;;;;6.40;4.00;;;23.90;71.80;;;;;;4970458;28;20034;-64
2021/08/13 06:43:44;;;;;;;7.20;3.78;;;24.00;71.60;;;;;;4974319;28;20111;-64
2021/08/13 06:46:10;;;;;;;7.95;3.75;;;24.00;71.30;;;;;;4972313;28;20049;-64
2021/08/13 06:48:36;;;;;;;7.03;3.83;;;24.10;71.20;;;;;;4973534;28;20048;-64
2021/08/13 06:51:01;;;;;;;9.27;3.70;;;24.10;70.70;;;;;;4984383;28;20472;-64
2021/08/13 06:53:27;;;;;;;6.80;3.42;;;24.20;70.70;;;;;;4989133;28;20035;-64
2021/08/13 06:55:53;;;;;;;5.43;3.33;;;24.20;70.20;;;;;;4971979;28;20066;-64
2021/08/13 06:58:18;;;;;;;6.78;3.40;;;24.40;69.80;;;;;;4976289;28;20050;-64
2021/08/13 07:00:44;;;;;;;8.43;2.80;;;24.40;69.30;;;;;;4972295;28;20039;-64
2021/08/13 07:03:10;;;;;;;5.50;3.30;;;24.40;68.90;;;;;;4987566;28;20042;-64
2021/08/13 07:05:35;;;;;;;7.18;2.80;;;24.50;68.70;;;;;;4975970;28;20058;-63
2021/08/13 07:08:08;;;;;;;5.80;2.85;;;24.60;68.50;;;;;;4972259;28;20466;-64
2021/08/13 07:10:33;;;;;;;4.28;2.70;;;24.60;67.10;;;;;;4972493;28;20046;-64
2021/08/13 07:12:59;;;;;;;4.72;2.38;;;24.70;67.00;;;;;;4978505;28;20398;-64
2021/08/13 07:15:25;;;;;;;3.78;2.80;;;24.70;66.60;;;;;;4969159;28;20042;-64
2021/08/13 07:17:50;;;;;;;4.65;2.72;;;24.80;66.70;;;;;;4969281;28;20104;-64
2021/08/13 07:20:16;;;;;;;5.03;2.60;;;24.80;66.80;;;;;;4981745;28;20121;-64
2021/08/13 07:22:41;;;;;;;4.25;2.75;;;24.90;66.00;;;;;;4973454;28;20497;-64
2021/08/13 07:25:08;;;;;;;3.97;2.70;;;25.00;65.90;;;;;;4972593;28;20093;-64
2021/08/13 07:27:33;;;;;;;6.80;2.80;;;25.00;65.70;;;;;;4986363;28;20080;-64
2021/08/13 07:29:59;;;;;;;7.15;2.83;;;25.10;65.40;;;;;;4956385;28;20054;-64
2021/08/13 07:32:25;;;;;;;3.83;2.30;;;25.10;65.00;;;;;;4955250;28;20031;-64
2021/08/13 07:34:51;;;;;;;4.68;2.47;;;25.20;64.70;;;;;;4955664;28;20057;-64
2021/08/13 07:37:17;;;;;;;4.53;2.58;;;25.30;64.40;;;;;;4954768;28;20039;-64
2021/08/13 07:39:43;;;;;;;5.70;2.63;;;25.30;64.10;;;;;;4953054;28;20042;-64
2021/08/13 07:42:09;;;;;;;3.53;2.45;;;25.40;64.20;;;;;;4960109;28;20059;-65
2021/08/13 07:44:34;;;;;;;4.10;2.85;;;25.40;63.60;;;;;;4962718;28;20034;-65
2021/08/13 07:47:00;;;;;;;6.05;2.47;;;25.50;63.40;;;;;;4954507;28;20053;-65
2021/08/13 07:49:26;;;;;;;4.07;2.40;;;25.50;63.10;;;;;;4955812;28;20137;-65
2021/08/13 07:51:51;;;;;;;5.00;2.33;;;25.60;63.10;;;;;;4954357;28;20045;-65
2021/08/13 07:54:17;;;;;;;3.63;2.17;;;25.70;63.30;;;;;;4956120;28;20145;-65
2021/08/13 07:56:42;;;;;;;6.50;2.30;;;25.70;63.30;;;;;;4958087;28;21240;-65
2021/08/13 07:59:08;;;;;;;5.10;2.53;;;25.80;62.90;;;;;;4954929;28;20039;-65
2021/08/13 08:01:34;;;;;;;5.22;2.42;;;25.90;62.60;;;;;;4962817;28;20093;-65
2021/08/13 08:03:59;;;;;;;5.00;2.30;;;26.00;62.10;;;;;;4954104;28;20235;-65
2021/08/13 08:06:28;;;;;;;7.45;2.65;;;26.00;62.30;;;;;;4952652;28;20129;-65
2021/08/13 08:08:54;;;;;;;5.50;2.28;;;26.10;62.20;;;;;;4956483;28;20034;-64
2021/08/13 08:11:19;;;;;;;3.28;2.03;;;26.10;62.00;;;;;;4969038;28;20031;-65
2021/08/13 08:13:45;;;;;;;4.20;2.47;;;26.20;61.50;;;;;;4955735;28;20603;-64
2021/08/13 08:16:11;;;;;;;6.50;2.80;;;26.30;61.00;;;;;;4979362;28;20049;-65
2021/08/13 08:18:37;;;;;;;5.70;2.45;;;26.30;60.30;;;;;;4959684;28;20037;-65
2021/08/13 08:21:03;;;;;;;5.97;2.17;;;26.40;60.50;;;;;;4961208;28;20039;-65
2021/08/13 08:23:28;;;;;;;4.97;2.10;;;26.50;60.30;;;;;;4954278;28;20743;-65
2021/08/13 08:25:54;;;;;;;3.83;1.98;;;26.50;60.60;;;;;;4955933;28;20030;-64
2021/08/13 08:28:20;;;;;;;5.45;2.15;;;26.60;60.40;;;;;;4951996;28;20042;-64
2021/08/13 08:30:46;;;;;;;7.03;2.20;;;26.70;60.30;;;;;;4961739;28;20482;-65
2021/08/13 08:33:11;;;;;;;4.85;2.10;;;26.80;60.30;;;;;;4956617;28;20577;-65
2021/08/13 08:35:37;;;;;;;4.70;2.40;;;26.80;60.20;;;;;;4960627;28;20041;-65
2021/08/13 08:38:03;;;;;;;4.47;2.25;;;26.90;60.20;;;;;;4966011;28;20034;-64
2021/08/13 08:40:35;;;;;;;4.97;2.38;;;27.00;60.00;;;;;;4954341;28;20178;-65
2021/08/13 08:43:05;;;;;;;4.72;2.25;;;27.10;60.00;;;;;;4956056;28;20101;-64
2021/08/13 08:45:33;;;;;;;5.68;2.85;;;27.20;59.20;;;;;;4959327;28;20035;-64
2021/08/13 08:48:00;;;;;;;6.95;2.53;;;27.20;59.30;;;;;;4959429;28;22040;-64
2021/08/13 08:50:27;;;;;;;5.35;2.50;;;27.30;59.10;;;;;;4953473;28;20222;-64
2021/08/13 08:52:55;;;;;;;4.72;2.55;;;27.40;59.00;;;;;;4956365;28;20039;-64
2021/08/13 08:55:21;;;;;;;8.95;2.53;;;27.50;59.00;;;;;;4955976;28;20478;-65
2021/08/13 08:57:47;;;;;;;7.65;2.65;;;27.60;59.00;;;;;;4952404;28;20039;-64
2021/08/13 09:00:15;;;;;;;13.23;2.90;;;27.60;58.80;;;;;;4954301;28;20047;-65
2021/08/13 09:02:45;;;;;;;6.60;2.45;;;27.70;58.50;;;;;;4975515;28;20146;-65
2021/08/13 09:05:12;;;;;;;6.70;2.90;;;27.80;57.80;;;;;;4954886;28;20038;-65
2021/08/13 09:07:38;;;;;;;4.90;2.95;;;27.80;58.20;;;;;;4963088;28;20038;-65
2021/08/13 09:10:06;;;;;;;5.65;2.90;;;27.90;58.30;;;;;;4975567;28;20206;-65
2021/08/13 09:12:33;;;;;;;7.50;2.70;;;27.90;57.90;;;;;;4973819;28;20078;-65
2021/08/13 09:15:00;;;;;;;4.30;2.60;;;28.00;57.80;;;;;;4969170;28;20054;-65
2021/08/13 09:17:30;;;;;;;7.85;3.28;;;28.00;58.30;;;;;;4983838;28;20039;-66
2021/08/13 09:19:56;;;;;;;8.98;2.45;;;28.10;57.90;;;;;;4970007;28;20061;-65
2021/08/13 09:22:22;;;;;;;4.75;2.90;;;28.20;58.00;;;;;;4973091;28;20065;-63
2021/08/13 09:24:50;;;;;;;6.85;2.72;;;28.20;57.90;;;;;;4978985;28;20466;-65
2021/08/13 09:27:18;;;;;;;5.90;2.63;;;28.30;57.80;;;;;;4964449;28;20047;-64
2021/08/13 09:30:07;;;;;;;6.50;2.50;;;28.40;57.90;;;;;;4969902;28;20039;-65
2021/08/13 09:32:34;;;;;;;5.15;3.17;;;28.40;56.90;;;;;;4974307;28;20045;-64
2021/08/13 09:35:00;;;;;;;5.78;2.83;;;28.40;58.20;;;;;;4974494;28;20033;-65
2021/08/13 09:37:25;;;;;;;6.38;3.05;;;28.50;57.50;;;;;;4975343;28;20030;-65
2021/08/13 09:39:56;;;;;;;4.85;2.75;;;28.50;57.40;;;;;;4982422;28;20044;-65
2021/08/13 09:42:31;;;;;;;4.72;2.85;;;28.60;57.50;;;;;;4971173;28;20043;-65
2021/08/13 09:45:04;;;;;;;5.50;3.10;;;28.60;57.80;;;;;;4965258;28;20077;-65
2021/08/13 09:47:48;;;;;;;7.70;2.70;;;28.70;57.50;;;;;;4976808;28;20073;-65
2021/08/13 09:50:16;;;;;;;5.18;3.00;;;28.80;57.40;;;;;;4960928;28;20047;-65
2021/08/13 09:53:03;;;;;;;8.32;3.00;;;28.90;57.50;;;;;;4969537;28;20043;-65
2021/08/13 09:55:28;;;;;;;6.78;2.58;;;28.90;57.50;;;;;;4954034;28;20034;-65
2021/08/13 09:57:54;;;;;;;6.03;2.40;;;29.00;58.10;;;;;;4960384;28;20045;-65
2021/08/13 10:00:20;;;;;;;9.38;3.13;;;29.10;57.10;;;;;;4972803;28;20093;-65
2021/08/13 10:02:46;;;;;;;3.53;2.58;;;29.20;57.30;;;;;;4983535;28;20698;-65
2021/08/13 10:05:20;;;;;;;6.32;2.60;;;29.20;56.60;;;;;;4970140;28;20045;-65
2021/08/13 10:07:47;;;;;;;6.57;2.97;;;29.30;55.60;;;;;;4971448;28;20100;-65
2021/08/13 10:10:13;;;;;;;6.55;3.05;;;29.40;56.10;;;;;;4968524;28;20042;-65
2021/08/13 10:12:44;;;;;;;6.43;3.10;;;29.40;55.90;;;;;;4970061;28;20045;-65
2021/08/13 10:15:11;;;;;;;5.18;2.70;;;29.50;55.00;;;;;;4969574;28;20648;-65
2021/08/13 10:17:37;;;;;;;5.72;2.78;;;29.50;55.40;;;;;;4978961;28;20045;-65
2021/08/13 10:20:03;;;;;;;4.20;2.58;;;29.60;55.80;;;;;;4987293;28;20069;-65
2021/08/13 10:22:29;;;;;;;6.15;2.83;;;29.60;54.90;;;;;;4982549;28;20041;-65
2021/08/13 10:24:56;;;;;;;5.22;2.17;;;29.70;54.70;;;;;;4980936;28;20038;-65
2021/08/13 10:27:23;;;;;;;5.68;2.60;;;29.70;54.10;;;;;;4984667;28;20464;-65
2021/08/13 10:29:49;;;;;;;9.73;2.67;;;29.70;54.10;;;;;;4980875;28;20034;-65
2021/08/13 10:32:20;;;;;;;4.88;2.63;;;29.80;53.80;;;;;;4978090;28;20030;-65
2021/08/13 10:34:46;;;;;;;4.97;2.63;;;29.80;53.60;;;;;;4978659;28;20038;-65
2021/08/13 10:37:14;;;;;;;3.17;2.40;;;29.90;53.10;;;;;;4978198;28;20035;-65
2021/08/13 10:39:41;;;;;;;9.13;2.95;;;29.90;53.30;;;;;;4983039;28;20049;-65
2021/08/13 10:42:13;;;;;;;5.47;2.25;;;29.90;52.80;;;;;;4985624;28;20047;-65
2021/08/13 10:44:50;;;;;;;4.30;2.03;;;30.00;52.90;;;;;;4982801;28;20038;-65
2021/08/13 10:47:20;;;;;;;3.70;1.58;;;30.00;51.30;;;;;;4983041;28;20092;-66
2021/08/13 10:49:50;;;;;;;7.38;1.70;;;30.00;50.00;;;;;;4982004;28;20664;-65
2021/08/13 10:52:17;;;;;;;3.72;1.58;;;30.10;50.00;;;;;;4983968;28;20053;-65
2021/08/13 10:54:45;;;;;;;5.78;1.60;;;30.10;49.80;;;;;;4979551;28;20514;-65
2021/08/13 10:57:14;;;;;;;4.10;1.40;;;30.20;48.80;;;;;;4984603;28;20509;-65
2021/08/13 10:59:39;;;;;;;3.08;1.15;;;30.20;48.80;;;;;;4984833;28;20054;-65
2021/08/13 11:02:08;;;;;;;4.30;1.48;;;30.20;49.40;;;;;;4985206;28;20065;-65
2021/08/13 11:04:42;;;;;;;5.68;1.70;;;30.30;48.00;;;;;;4978693;28;20039;-65
2021/08/13 11:07:07;;;;;;;2.88;1.27;;;30.30;46.00;;;;;;4981772;28;20043;-65
2021/08/13 11:09:34;;;;;;;3.58;1.50;;;30.30;47.30;;;;;;5002450;28;20398;-65
2021/08/13 11:12:02;;;;;;;8.02;1.50;;;30.40;47.40;;;;;;4983199;28;20077;-65
2021/08/13 11:14:32;;;;;;;7.40;1.30;;;30.40;46.90;;;;;;5000849;28;20053;-65
2021/08/13 11:16:59;;;;;;;3.03;1.50;;;30.50;47.20;;;;;;4988408;28;20066;-65
2021/08/13 11:19:26;;;;;;;6.90;1.30;;;30.50;47.80;;;;;;4986876;28;20046;-65
2021/08/13 11:21:59;;;;;;;3.35;1.30;;;30.50;47.60;;;;;;5003862;28;20049;-65
2021/08/13 11:24:46;;;;;;;3.67;1.70;;;30.60;47.10;;;;;;4987817;28;20453;-65
2021/08/13 11:27:12;;;;;;;7.32;1.85;;;30.70;47.40;;;;;;4986408;28;20061;-65
2021/08/13 11:29:43;;;;;;;5.03;1.88;;;30.70;47.50;;;;;;4986700;28;20037;-65
2021/08/13 11:32:23;;;;;;;7.50;1.60;;;30.70;47.20;;;;;;4984085;28;20031;-65
2021/08/13 11:34:53;;;;;;;3.33;1.75;;;30.80;47.10;;;;;;4985355;28;20105;-65
2021/08/13 11:37:27;;;;;;;7.10;2.00;;;30.80;47.60;;;;;;5001676;28;20039;-65
2021/08/13 11:39:54;;;;;;;9.20;2.25;;;30.90;47.80;;;;;;4998827;28;20046;-66
2021/08/13 11:42:21;;;;;;;4.95;1.92;;;30.90;48.30;;;;;;4983513;28;20044;-66
2021/08/13 11:44:51;;;;;;;7.32;2.30;;;30.90;48.40;;;;;;4983899;28;20044;-65
2021/08/13 11:47:18;;;;;;;3.33;1.90;;;31.00;48.20;;;;;;4984967;28;20429;-66
2021/08/13 11:49:46;;;;;;;5.90;2.50;;;31.00;48.70;;;;;;4985748;28;20040;-65
2021/08/13 11:52:12;;;;;;;6.82;2.40;;;31.10;48.30;;;;;;4986886;28;20085;-65
2021/08/13 11:54:38;;;;;;;5.75;2.50;;;31.10;48.10;;;;;;4986102;28;20053;-65
2021/08/13 11:57:14;;;;;;;10.00;2.80;;;31.20;48.60;;;;;;4987701;28;20027;-66
2021/08/13 11:59:41;;;;;;;6.97;2.92;;;31.20;48.40;;;;;;4984947;28;20350;-65
2021/08/13 12:02:07;;;;;;;4.72;2.60;;;31.30;48.80;;;;;;4983712;28;20027;-65
2021/08/13 12:04:32;;;;;;;3.78;2.45;;;31.30;48.20;;;;;;4985430;28;20042;-65
2021/08/13 12:07:18;;;;;;;6.97;2.70;;;31.30;48.40;;;;;;4985232;28;20635;-65
2021/08/13 12:09:44;;;;;;;6.22;2.67;;;31.30;47.90;;;;;;4981437;28;20158;-65
2021/08/13 12:12:13;;;;;;;7.88;3.17;;;31.30;48.70;;;;;;4981777;28;20035;-65
2021/08/13 12:14:47;;;;;;;6.78;2.70;;;31.30;48.50;;;;;;4985221;28;20510;-66
2021/08/13 12:17:13;;;;;;;8.18;2.85;;;31.40;48.10;;;;;;4988720;28;20026;-65
2021/08/13 12:19:39;;;;;;;7.28;3.03;;;31.40;48.50;;;;;;4983141;28;20097;-65
2021/08/13 12:22:06;;;;;;;6.40;3.20;;;31.40;48.20;;;;;;4986519;28;20035;-65
2021/08/13 12:24:32;;;;;;;7.10;2.90;;;31.50;48.20;;;;;;4987436;28;20038;-65
2021/08/13 12:27:05;;;;;;;4.90;2.63;;;31.50;48.30;;;;;;4987270;28;20037;-65
2021/08/13 12:29:32;;;;;;;9.45;2.60;;;31.50;48.80;;;;;;4984535;28;20096;-65
2021/08/13 12:32:00;;;;;;;8.32;3.05;;;31.50;48.80;;;;;;4985269;28;20034;-65
2021/08/13 12:34:28;;;;;;;10.77;2.83;;;31.60;48.50;;;;;;4981537;28;20038;-65
2021/08/13 12:37:06;;;;;;;4.55;2.58;;;31.60;48.50;;;;;;4974694;28;20285;-65
2021/08/13 12:39:34;;;;;;;6.00;2.67;;;31.60;47.70;;;;;;4983593;28;20088;-65
2021/08/13 12:42:00;;;;;;;6.05;2.63;;;31.70;48.30;;;;;;4986233;28;20042;-66
2021/08/13 12:44:26;;;;;;;5.10;2.85;;;31.70;48.00;;;;;;4983656;28;20506;-65
2021/08/13 12:46:52;;;;;;;5.82;2.55;;;31.70;48.20;;;;;;4986184;28;20058;-65